Pagina principale
METAR-TAF:

METAR-TAF

Aeroporti :

Aeroporto Internazionale di Mostar

Mostar, Bosnia-Erzegovina

latitudine: 43-21N, longitudine: 017-48E, altezza: 108 m

Osservazione

Il bollettino è stato emesso 36 minuti fa, alle 20:00 UTC
Vento 2 kt da direzioni variabili
Temperature 7°C
Umidità 61%
Pressione 1022 hPa
Visibilità 10 km o più
nessuna nube inferiore a 1500 m e nessun cumulonembo

METAR: LQMO 212000Z VRB02KT CAVOK 07/00 Q1022

Ora: 21:36 (20:36 UTC)

Previsione

Il bollettino è stato emesso 3 ore e 36 minuti fa, alle 17:00 UTC
Previsione valida dal 21 alle 18 UTC al 22 alle 18 UTC
Vento 5 kt da est
Visibilità 10 km o più
nessuna nube inferiore a 1500 m e nessun cumulonembo
Evoluzione graduale
dal 22 alle 10 UTC al 22 alle 13 UTC
Vento 12 kt da sud/sud-ovest

TAF: LQMO 211700Z 2118/2218 08005KT CAVOK TX20/2213Z TN02/2206Z BECMG 2210/2213 20012KT

Osservazioni e previsioni meteorologiche di più di 4000 aeroporti (messaggi METAR e TAF).

Le stazioni disponibili sono rappresentate dai dischi gialli e rossi sulla carta.

Puntare il mouse per vedere il nome della stazione.

Clicca sopra per visualizzare le osservazioni e previsioni meteorologiche.

Per cambiare la mappa : fare clic sui pulsanti verdi con una croce nera per ingrandire, il pulsante verde con un trattino per diminuire, o sulla freccia verde per le mappe adiacenti.


METAR-TAF: